createdAt,value
2022-12-08T00:01:06.919Z,9.73
2022-12-08T00:03:35.205Z,8.77
2022-12-08T00:06:04.298Z,7.72
2022-12-08T00:08:32.100Z,9.60
2022-12-08T00:11:01.008Z,10.02
2022-12-08T00:13:29.240Z,8.35
2022-12-08T00:16:00.368Z,8.60
2022-12-08T00:18:28.496Z,8.23
2022-12-08T00:20:55.878Z,11.05
2022-12-08T00:23:23.679Z,6.88
2022-12-08T00:25:51.198Z,9.10
2022-12-08T00:28:20.428Z,7.97
2022-12-08T00:30:47.876Z,9.85
2022-12-08T00:33:15.836Z,7.13
2022-12-08T00:35:43.552Z,8.95
2022-12-08T00:38:11.495Z,9.15
2022-12-08T00:40:43.367Z,9.15
2022-12-08T00:43:11.195Z,9.70
2022-12-08T00:45:40.103Z,7.85
2022-12-08T00:48:08.040Z,9.88
2022-12-08T00:50:35.479Z,8.90
2022-12-08T00:53:03.670Z,8.55
2022-12-08T00:55:30.995Z,8.88
2022-12-08T00:57:58.727Z,13.10
2022-12-08T01:00:26.186Z,8.10
2022-12-08T01:02:55.543Z,8.35
2022-12-08T01:05:22.950Z,10.32
2022-12-08T01:07:50.830Z,11.60
2022-12-08T01:10:18.369Z,8.02
2022-12-08T01:12:46.108Z,8.45
2022-12-08T01:15:13.437Z,9.00
2022-12-08T01:17:41.091Z,13.70
2022-12-08T01:20:10.352Z,10.82
2022-12-08T01:22:38.089Z,11.40
2022-12-08T01:25:06.023Z,11.48
2022-12-08T01:27:33.804Z,12.23
2022-12-08T01:30:01.198Z,10.70
2022-12-08T01:32:29.240Z,9.82
2022-12-08T01:34:56.643Z,15.35
2022-12-08T01:37:26.256Z,14.15
2022-12-08T01:39:53.511Z,11.25
2022-12-08T01:42:22.874Z,11.48
2022-12-08T01:44:55.633Z,10.48
2022-12-08T01:47:27.564Z,15.20
2022-12-08T01:49:55.357Z,12.18
2022-12-08T01:52:32.286Z,11.80
2022-12-08T01:55:04.274Z,9.68
2022-12-08T01:57:36.781Z,11.57
2022-12-08T02:00:21.530Z,8.13
2022-12-08T02:02:57.414Z,9.68
2022-12-08T02:05:28.957Z,13.18
2022-12-08T02:08:00.464Z,11.10
2022-12-08T02:10:30.779Z,9.88
2022-12-08T02:13:00.335Z,10.68
2022-12-08T02:15:35.561Z,11.50
2022-12-08T02:18:16.944Z,11.52
2022-12-08T02:20:56.557Z,10.52
2022-12-08T02:23:35.227Z,9.50
2022-12-08T02:26:27.270Z,13.65
2022-12-08T02:29:29.664Z,10.82
2022-12-08T02:32:18.741Z,11.77
2022-12-08T02:34:55.795Z,9.93
2022-12-08T02:37:28.329Z,16.75
2022-12-08T02:42:34.473Z,11.02
2022-12-08T02:45:09.696Z,12.45
2022-12-08T02:47:38.381Z,13.25
2022-12-08T02:50:09.456Z,11.43
2022-12-08T02:52:42.187Z,10.55
2022-12-08T02:55:20.071Z,10.63
2022-12-08T02:58:21.516Z,13.50
2022-12-08T03:01:07.448Z,9.63
2022-12-08T03:03:45.618Z,10.10
2022-12-08T03:06:25.356Z,13.80
2022-12-08T03:08:58.338Z,9.68
2022-12-08T03:11:33.584Z,12.20
2022-12-08T03:14:06.685Z,10.98
2022-12-08T03:16:38.770Z,10.60
2022-12-08T03:19:12.377Z,12.20
2022-12-08T03:21:43.812Z,12.65
2022-12-08T03:24:13.091Z,12.55
2022-12-08T03:26:45.922Z,12.32
2022-12-08T03:29:13.863Z,12.70
2022-12-08T03:31:49.529Z,11.20
2022-12-08T03:34:18.247Z,11.85
2022-12-08T03:36:47.728Z,10.60
2022-12-08T03:39:15.417Z,13.13
2022-12-08T03:41:43.255Z,11.38
2022-12-08T03:44:10.835Z,9.43
2022-12-08T03:46:40.061Z,13.73
2022-12-08T03:49:07.881Z,11.68
2022-12-08T03:51:36.044Z,10.38
2022-12-08T03:54:05.190Z,11.82
2022-12-08T03:56:36.592Z,8.95
2022-12-08T03:59:05.056Z,12.82
2022-12-08T04:01:33.607Z,10.65
2022-12-08T04:04:01.055Z,11.98
2022-12-08T04:06:29.133Z,12.50
2022-12-08T04:08:56.931Z,14.40
2022-12-08T04:11:26.195Z,11.50
2022-12-08T04:13:53.882Z,13.30
2022-12-08T04:16:24.135Z,13.48
2022-12-08T04:18:51.643Z,10.88
2022-12-08T04:21:20.186Z,12.27
2022-12-08T04:23:47.852Z,13.27
2022-12-08T04:26:15.816Z,10.48
2022-12-08T04:28:45.339Z,11.65
2022-12-08T04:31:13.245Z,11.90
2022-12-08T04:33:41.025Z,13.13
2022-12-08T04:36:09.592Z,11.88
2022-12-08T04:38:36.935Z,13.23
2022-12-08T04:41:04.900Z,15.00
2022-12-08T04:43:32.374Z,13.70
2022-12-08T04:46:01.621Z,13.80
2022-12-08T04:48:28.992Z,13.40
2022-12-08T04:50:57.084Z,13.65
2022-12-08T04:53:24.500Z,11.98
2022-12-08T04:55:52.223Z,11.77
2022-12-08T04:58:20.441Z,12.25
2022-12-08T05:00:48.896Z,16.17
2022-12-08T05:03:17.652Z,12.40
2022-12-08T05:05:45.947Z,13.82
2022-12-08T05:08:13.445Z,11.45
2022-12-08T05:10:41.248Z,10.90
2022-12-08T05:13:08.828Z,11.10
2022-12-08T05:15:36.853Z,9.57
2022-12-08T05:18:05.959Z,10.18
2022-12-08T05:20:35.711Z,9.23
2022-12-08T05:23:03.595Z,11.25
2022-12-08T05:25:31.759Z,10.88
2022-12-08T05:28:24.708Z,12.18
2022-12-08T05:30:47.055Z,12.30
2022-12-08T05:33:14.547Z,7.85
2022-12-08T05:35:43.965Z,12.18
2022-12-08T05:38:11.742Z,11.00
2022-12-08T05:40:40.427Z,12.80
2022-12-08T05:43:10.548Z,12.35
2022-12-08T05:45:38.671Z,12.30
2022-12-08T05:48:06.402Z,13.15
2022-12-08T05:50:34.052Z,10.65
2022-12-08T05:53:02.754Z,9.75
2022-12-08T05:55:30.573Z,10.68
2022-12-08T05:58:04.656Z,10.68
2022-12-08T06:00:35.595Z,12.73
2022-12-08T06:03:03.554Z,12.05
2022-12-08T06:05:33.004Z,9.85
2022-12-08T06:08:02.352Z,12.95
2022-12-08T06:10:30.479Z,9.50
2022-12-08T06:12:58.092Z,10.32
2022-12-08T06:15:25.888Z,10.63
2022-12-08T06:17:53.228Z,9.98
2022-12-08T06:20:21.549Z,9.50
2022-12-08T06:22:48.888Z,15.07
2022-12-08T06:25:18.238Z,13.18
2022-12-08T06:27:45.614Z,12.02
2022-12-08T06:30:14.149Z,12.93
2022-12-08T06:32:41.484Z,14.07
2022-12-08T06:35:10.190Z,13.77
2022-12-08T06:37:37.716Z,12.30
2022-12-08T06:40:07.171Z,11.32
2022-12-08T06:42:36.234Z,13.88
2022-12-08T06:45:04.697Z,14.85
2022-12-08T06:47:32.005Z,12.13
2022-12-08T06:50:03.214Z,14.20
2022-12-08T06:52:31.142Z,13.27
2022-12-08T06:54:59.267Z,12.27
2022-12-08T06:57:26.590Z,11.90
2022-12-08T06:59:55.740Z,13.82
2022-12-08T07:02:23.137Z,15.23
2022-12-08T07:04:51.850Z,15.35
2022-12-08T07:07:22.264Z,17.20
2022-12-08T07:09:50.099Z,16.77
2022-12-08T07:12:17.508Z,15.40
2022-12-08T07:14:45.291Z,21.40
2022-12-08T07:17:14.365Z,13.63
2022-12-08T07:19:42.257Z,13.85
2022-12-08T07:22:09.450Z,11.23
2022-12-08T07:24:37.388Z,11.45
2022-12-08T07:27:06.579Z,12.35
2022-12-08T07:29:34.428Z,13.30
2022-12-08T07:32:01.830Z,14.93
2022-12-08T07:34:31.101Z,12.35
2022-12-08T07:36:58.427Z,12.65
2022-12-08T07:39:26.676Z,12.75
2022-12-08T07:41:54.304Z,12.15
2022-12-08T07:44:22.191Z,12.93
2022-12-08T07:46:49.509Z,12.70
2022-12-08T07:49:17.143Z,19.58
2022-12-08T07:51:46.206Z,23.08
2022-12-08T07:54:13.953Z,24.58
2022-12-08T07:56:41.337Z,20.38
2022-12-08T07:59:09.021Z,21.35
2022-12-08T08:01:36.657Z,17.63
2022-12-08T08:04:06.156Z,14.98
2022-12-08T08:06:34.693Z,13.50
2022-12-08T08:09:04.459Z,11.27
2022-12-08T08:11:32.114Z,10.70
2022-12-08T08:14:00.148Z,11.70
2022-12-08T08:16:28.520Z,10.00
2022-12-08T08:18:58.779Z,11.35
2022-12-08T08:21:45.143Z,12.82
2022-12-08T08:24:15.454Z,12.73
2022-12-08T08:26:42.943Z,17.10
2022-12-08T08:29:10.676Z,21.48
2022-12-08T08:31:38.331Z,13.55
2022-12-08T08:34:06.346Z,13.30
2022-12-08T08:36:34.501Z,16.30
2022-12-08T08:39:02.652Z,11.20
2022-12-08T08:41:31.869Z,10.82
2022-12-08T08:43:59.790Z,9.15
2022-12-08T08:46:27.303Z,10.55
2022-12-08T08:48:56.452Z,15.88
2022-12-08T08:51:24.469Z,12.13
2022-12-08T08:53:52.237Z,15.55
2022-12-08T08:56:20.119Z,11.00
2022-12-08T08:58:50.292Z,10.55
2022-12-08T09:01:19.149Z,9.75
2022-12-08T09:03:47.588Z,10.77
2022-12-08T09:06:15.483Z,7.30
2022-12-08T09:08:43.962Z,7.13
2022-12-08T09:11:11.764Z,8.88
2022-12-08T09:13:39.942Z,10.02
2022-12-08T09:16:11.138Z,7.97
2022-12-08T09:18:38.912Z,9.35
2022-12-08T09:21:08.414Z,11.13
2022-12-08T09:23:37.370Z,12.13
2022-12-08T09:26:05.803Z,10.52
2022-12-08T09:28:33.832Z,9.20
2022-12-08T09:31:01.535Z,9.82
2022-12-08T09:33:31.300Z,10.93
2022-12-08T09:36:02.651Z,9.27
2022-12-08T09:38:30.808Z,9.15
2022-12-08T09:40:59.986Z,9.05
2022-12-08T09:43:53.551Z,11.32
2022-12-08T09:46:21.533Z,9.93
2022-12-08T09:48:54.043Z,9.52
2022-12-08T09:51:23.515Z,11.63
2022-12-08T09:53:56.767Z,10.60
2022-12-08T09:58:58.500Z,11.23
2022-12-08T10:01:29.054Z,13.20
2022-12-08T10:03:59.001Z,7.85
2022-12-08T10:06:31.803Z,10.05
2022-12-08T10:09:12.606Z,10.63
2022-12-08T10:11:50.413Z,9.82
2022-12-08T10:14:28.653Z,8.65
2022-12-08T10:17:01.283Z,9.55
2022-12-08T10:19:31.525Z,9.15
2022-12-08T10:21:59.028Z,8.85
2022-12-08T10:24:34.549Z,7.35
2022-12-08T10:27:02.517Z,8.25
2022-12-08T10:29:30.433Z,8.95
2022-12-08T10:31:59.814Z,9.07
2022-12-08T10:34:27.601Z,7.28
2022-12-08T10:36:58.419Z,8.95
2022-12-08T10:39:40.258Z,8.77
2022-12-08T10:42:16.837Z,7.40
2022-12-08T10:44:54.574Z,8.00
2022-12-08T10:47:24.697Z,8.02
2022-12-08T10:50:08.523Z,12.38
2022-12-08T10:52:40.002Z,11.30
2022-12-08T10:55:15.145Z,10.05
2022-12-08T10:57:42.549Z,9.38
2022-12-08T11:00:14.399Z,9.02
2022-12-08T11:02:54.870Z,8.48
2022-12-08T11:05:26.943Z,8.10
2022-12-08T11:07:56.652Z,10.15
2022-12-08T11:10:34.158Z,10.18
2022-12-08T11:13:04.500Z,10.75
2022-12-08T11:15:38.236Z,10.52
2022-12-08T11:18:10.124Z,7.32
2022-12-08T11:20:41.581Z,8.35
2022-12-08T11:23:24.455Z,8.60
2022-12-08T11:25:56.243Z,8.68
2022-12-08T11:28:24.855Z,8.82
2022-12-08T11:30:57.451Z,8.02
2022-12-08T11:33:28.216Z,12.30
2022-12-08T11:36:01.081Z,7.65
2022-12-08T11:38:31.925Z,10.13
2022-12-08T11:41:07.509Z,9.55
2022-12-08T11:43:44.423Z,10.52
2022-12-08T11:46:16.969Z,14.05
2022-12-08T11:48:50.567Z,8.55
2022-12-08T11:51:28.908Z,12.68
2022-12-08T11:54:13.650Z,10.88
2022-12-08T11:56:44.920Z,11.02
2022-12-08T11:59:19.726Z,11.32
2022-12-08T12:01:47.640Z,11.55
2022-12-08T12:04:23.399Z,11.70
2022-12-08T12:07:25.876Z,15.13
2022-12-08T12:10:17.730Z,12.25
2022-12-08T12:12:58.135Z,13.80
2022-12-08T12:16:12.503Z,12.05
2022-12-08T12:18:43.888Z,11.77
2022-12-08T12:21:15.482Z,12.18
2022-12-08T12:23:49.213Z,12.55
2022-12-08T12:26:23.758Z,9.85
2022-12-08T12:28:55.641Z,12.68
2022-12-08T12:31:27.351Z,13.65
2022-12-08T12:34:06.296Z,11.85
2022-12-08T12:36:46.737Z,13.05
2022-12-08T12:39:18.511Z,9.38
2022-12-08T12:41:51.215Z,10.23
2022-12-08T12:44:41.905Z,11.85
2022-12-08T12:47:46.883Z,14.32
2022-12-08T12:50:42.024Z,9.93
2022-12-08T12:53:42.273Z,10.27
2022-12-08T12:56:10.448Z,10.07
2022-12-08T12:58:40.725Z,9.93
2022-12-08T13:01:47.648Z,13.20
2022-12-08T13:04:15.147Z,9.20
2022-12-08T13:06:46.999Z,8.80
2022-12-08T13:09:23.473Z,9.30
2022-12-08T13:11:55.436Z,9.20
2022-12-08T13:14:47.151Z,9.48
2022-12-08T13:17:21.255Z,9.13
2022-12-08T13:19:51.907Z,10.18
2022-12-08T13:23:05.320Z,9.45
2022-12-08T13:25:50.950Z,10.95
2022-12-08T13:28:28.955Z,11.82
2022-12-08T13:31:02.456Z,9.75
2022-12-08T13:33:33.665Z,11.27
2022-12-08T13:36:17.255Z,9.40
2022-12-08T13:38:47.421Z,10.27
2022-12-08T13:41:20.601Z,10.27
2022-12-08T13:44:50.466Z,12.73
2022-12-08T13:56:51.606Z,13.35
2022-12-08T13:58:20.924Z,9.32
2022-12-08T14:03:26.355Z,8.25
2022-12-08T14:09:02.385Z,10.32
2022-12-08T14:11:34.931Z,10.02
2022-12-08T14:14:06.043Z,10.75
2022-12-08T14:16:38.705Z,10.40
2022-12-08T14:19:16.895Z,12.18
2022-12-08T14:21:51.903Z,11.40
2022-12-08T14:24:19.484Z,10.60
2022-12-08T14:26:53.265Z,13.23
2022-12-08T14:29:40.837Z,15.10
2022-12-08T14:32:21.645Z,14.80
2022-12-08T14:34:54.164Z,13.65
2022-12-08T14:37:23.197Z,13.95
2022-12-08T14:39:52.082Z,13.00
2022-12-08T14:42:23.844Z,10.45
2022-12-08T14:45:04.908Z,11.43
2022-12-08T14:47:34.162Z,10.98
2022-12-08T14:50:05.494Z,11.68
2022-12-08T14:52:33.496Z,10.70
2022-12-08T14:55:07.594Z,11.02
2022-12-08T14:57:35.633Z,10.70
2022-12-08T15:00:10.982Z,12.60
2022-12-08T15:02:45.160Z,14.13
2022-12-08T15:05:18.070Z,13.50
2022-12-08T15:07:50.000Z,12.85
2022-12-08T15:10:28.151Z,11.80
2022-12-08T15:13:02.976Z,12.00
2022-12-08T15:15:32.227Z,13.50
2022-12-08T15:18:12.226Z,12.00
2022-12-08T15:20:46.322Z,15.38
2022-12-08T15:23:33.004Z,15.07
2022-12-08T15:26:00.511Z,19.80
2022-12-08T15:28:30.260Z,15.50
2022-12-08T15:30:58.920Z,13.73
2022-12-08T15:33:27.065Z,14.07
2022-12-08T15:35:55.721Z,16.60
2022-12-08T15:38:25.864Z,20.65
2022-12-08T15:40:54.204Z,17.65
2022-12-08T15:43:23.258Z,19.92
2022-12-08T15:45:59.587Z,16.85
2022-12-08T15:48:30.003Z,20.23
2022-12-08T15:50:59.073Z,21.25
2022-12-08T15:53:27.328Z,20.13
2022-12-08T15:58:59.003Z,24.13
2022-12-08T16:01:27.153Z,18.88
2022-12-08T16:09:37.918Z,21.85
2022-12-08T16:12:09.518Z,25.38
2022-12-08T16:17:26.850Z,23.33
2022-12-08T16:19:55.031Z,25.88
2022-12-08T16:25:20.377Z,26.00
2022-12-08T16:28:01.495Z,22.35
2022-12-08T16:30:33.909Z,30.55
2022-12-08T16:33:01.612Z,27.15
2022-12-08T16:35:32.844Z,26.65
2022-12-08T16:38:01.820Z,20.52
2022-12-08T16:40:29.751Z,24.70
2022-12-08T16:42:57.131Z,32.95
2022-12-08T16:45:26.858Z,30.80
2022-12-08T16:47:56.376Z,34.33
2022-12-08T16:50:26.027Z,32.38
2022-12-08T16:52:57.563Z,30.83
2022-12-08T16:55:27.089Z,31.20
2022-12-08T16:57:54.943Z,22.55
2022-12-08T17:00:24.593Z,19.88
2022-12-08T17:02:52.666Z,25.17
2022-12-08T17:05:22.203Z,25.55
2022-12-08T17:07:51.548Z,20.42
2022-12-08T17:10:22.285Z,23.85
2022-12-08T17:12:52.068Z,25.10
2022-12-08T17:15:23.922Z,23.15
2022-12-08T17:17:52.140Z,21.65
2022-12-08T17:20:22.158Z,22.88
2022-12-08T17:22:49.860Z,25.15
2022-12-08T17:25:17.792Z,27.05
2022-12-08T17:27:45.181Z,27.08
2022-12-08T17:30:15.226Z,23.60
2022-12-08T17:32:43.060Z,25.33
2022-12-08T17:35:11.308Z,24.50
2022-12-08T17:37:38.680Z,23.52
2022-12-08T17:40:08.070Z,30.20
2022-12-08T17:42:35.740Z,27.38
2022-12-08T17:45:04.789Z,24.88
2022-12-08T17:47:34.040Z,23.63
2022-12-08T17:50:02.453Z,23.45
2022-12-08T17:52:30.009Z,22.73
2022-12-08T17:54:57.798Z,24.75
2022-12-08T17:57:25.154Z,25.10
2022-12-08T17:59:55.959Z,26.98
2022-12-08T18:02:23.512Z,22.77
2022-12-08T18:04:52.730Z,18.50
2022-12-08T18:07:20.125Z,23.48
2022-12-08T18:09:47.734Z,20.55
2022-12-08T18:12:19.255Z,23.20
2022-12-08T18:14:50.084Z,22.60
2022-12-08T18:17:17.610Z,26.35
2022-12-08T18:19:45.561Z,25.23
2022-12-08T18:22:14.403Z,22.63
2022-12-08T18:24:43.555Z,28.88
2022-12-08T18:27:11.596Z,26.50
2022-12-08T18:29:40.307Z,20.95
2022-12-08T18:32:08.102Z,18.30
2022-12-08T18:34:36.337Z,25.20
2022-12-08T18:37:03.986Z,24.05
2022-12-08T18:39:35.131Z,21.30
2022-12-08T18:42:02.768Z,24.48
2022-12-08T18:44:30.513Z,23.02
2022-12-08T18:46:57.920Z,19.55
2022-12-08T18:49:25.871Z,19.77
2022-12-08T18:51:53.249Z,20.25
2022-12-08T18:54:27.682Z,23.58
2022-12-08T18:57:06.535Z,26.52
2022-12-08T18:59:34.422Z,27.80
2022-12-08T19:02:01.921Z,27.00
2022-12-08T19:04:30.276Z,25.38
2022-12-08T19:06:59.385Z,27.98
2022-12-08T19:09:27.251Z,30.92
2022-12-08T19:11:54.735Z,26.25
2022-12-08T19:14:28.296Z,33.25
2022-12-08T19:16:56.572Z,27.88
2022-12-08T19:19:24.485Z,26.40
2022-12-08T19:21:52.231Z,28.23
2022-12-08T19:24:19.968Z,26.20
2022-12-08T19:26:47.642Z,31.45
2022-12-08T19:29:15.949Z,18.83
2022-12-08T19:31:48.110Z,25.65
2022-12-08T19:34:16.386Z,25.02
2022-12-08T19:36:44.111Z,28.70
2022-12-08T19:39:15.868Z,30.23
2022-12-08T19:41:43.447Z,30.50
2022-12-08T19:44:18.571Z,28.70
2022-12-08T19:46:47.512Z,23.63
2022-12-08T19:49:16.435Z,22.80
2022-12-08T19:51:43.792Z,17.25
2022-12-08T19:54:12.029Z,29.25
2022-12-08T19:56:39.570Z,31.25
2022-12-08T19:59:07.805Z,26.30
2022-12-08T20:01:35.201Z,26.80
2022-12-08T20:04:05.130Z,28.20
2022-12-08T20:06:32.602Z,23.48
2022-12-08T20:09:00.717Z,22.45
2022-12-08T20:11:28.377Z,25.80
2022-12-08T20:13:56.405Z,26.17
2022-12-08T20:16:26.057Z,25.90
2022-12-08T20:18:53.983Z,22.08
2022-12-08T20:21:23.060Z,26.75
2022-12-08T20:23:50.977Z,24.67
2022-12-08T20:26:20.126Z,25.42
2022-12-08T20:28:48.189Z,25.55
2022-12-08T20:31:19.002Z,25.15
2022-12-08T20:33:47.342Z,22.63
2022-12-08T20:36:16.572Z,28.45
2022-12-08T20:38:46.083Z,23.77
2022-12-08T20:41:13.571Z,22.95
2022-12-08T20:43:41.720Z,20.88
2022-12-08T20:46:10.826Z,24.00
2022-12-08T20:48:38.976Z,30.83
2022-12-08T20:51:07.082Z,26.67
2022-12-08T20:53:35.271Z,33.17
2022-12-08T20:56:04.351Z,29.98
2022-12-08T20:58:32.264Z,29.80
2022-12-08T21:00:59.932Z,33.83
2022-12-08T21:03:27.984Z,32.05
2022-12-08T21:05:55.558Z,40.83
2022-12-08T21:08:23.551Z,35.03
2022-12-08T21:10:54.437Z,26.60
2022-12-08T21:13:24.178Z,32.72
2022-12-08T21:15:51.660Z,28.42
2022-12-08T21:18:20.508Z,26.73
2022-12-08T21:20:48.777Z,29.58
2022-12-08T21:23:17.154Z,29.98
2022-12-08T21:25:46.054Z,21.23
2022-12-08T21:28:13.899Z,28.63
2022-12-08T21:30:43.164Z,29.60
2022-12-08T21:33:11.217Z,25.02
2022-12-08T21:35:38.817Z,37.50
2022-12-08T21:38:07.387Z,38.63
2022-12-08T21:40:35.171Z,29.85
2022-12-08T21:43:03.413Z,36.03
2022-12-08T21:45:30.798Z,40.22
2022-12-08T21:48:02.245Z,33.40
2022-12-08T21:50:33.365Z,32.10
2022-12-08T21:53:01.757Z,42.83
2022-12-08T21:55:29.329Z,36.22
2022-12-08T21:57:57.202Z,29.77
2022-12-08T22:00:25.263Z,23.25
2022-12-08T22:02:53.378Z,25.98
2022-12-08T22:05:22.818Z,30.15
2022-12-08T22:07:50.880Z,27.65
2022-12-08T22:10:18.786Z,27.88
2022-12-08T22:12:47.337Z,28.00
2022-12-08T22:15:15.163Z,31.42
2022-12-08T22:17:43.947Z,33.42
2022-12-08T22:20:13.800Z,28.00
2022-12-08T22:22:43.861Z,30.63
2022-12-08T22:25:11.383Z,28.25
2022-12-08T22:27:40.031Z,28.02
2022-12-08T22:30:09.674Z,25.88
2022-12-08T22:32:38.552Z,28.33
2022-12-08T22:35:06.679Z,30.52
2022-12-08T22:37:34.668Z,29.40
2022-12-08T22:40:04.519Z,29.45
2022-12-08T22:42:32.912Z,31.30
2022-12-08T22:45:00.572Z,32.10
2022-12-08T22:47:28.947Z,29.25
2022-12-08T22:49:56.437Z,30.17
2022-12-08T22:52:24.711Z,29.67
2022-12-08T22:54:52.099Z,26.27
2022-12-08T22:57:21.264Z,29.40
2022-12-08T22:59:48.981Z,33.22
2022-12-08T23:02:16.855Z,26.73
2022-12-08T23:04:44.660Z,27.33
2022-12-08T23:07:13.053Z,25.95
2022-12-08T23:09:40.393Z,31.77
2022-12-08T23:12:08.336Z,26.67
2022-12-08T23:14:37.290Z,26.98
2022-12-08T23:17:05.620Z,26.08
2022-12-08T23:19:35.520Z,27.42
2022-12-08T23:22:21.174Z,31.70
2022-12-08T23:25:09.051Z,28.60
2022-12-08T23:27:54.463Z,28.92
2022-12-08T23:30:24.131Z,31.67
2022-12-08T23:32:55.077Z,31.38
2022-12-08T23:35:23.679Z,29.02
2022-12-08T23:37:51.271Z,29.35
2022-12-08T23:40:19.435Z,25.42
2022-12-08T23:42:46.854Z,27.02
2022-12-08T23:45:14.543Z,23.05
2022-12-08T23:47:43.320Z,25.90
2022-12-08T23:50:11.701Z,27.70
2022-12-08T23:52:40.091Z,25.10
2022-12-08T23:55:08.892Z,23.60
2022-12-08T23:57:36.787Z,25.88
